createdAt,value
2024-04-30T00:02:09.488Z,2.17
2024-04-30T00:04:36.479Z,1.60
2024-04-30T00:07:03.508Z,1.75
2024-04-30T00:09:30.302Z,1.45
2024-04-30T00:11:57.095Z,1.85
2024-04-30T00:14:23.842Z,1.75
2024-04-30T00:16:50.633Z,1.90
2024-04-30T00:19:17.435Z,2.00
2024-04-30T00:21:44.250Z,2.00
2024-04-30T00:24:12.701Z,2.13
2024-04-30T00:26:39.663Z,1.85
2024-04-30T00:29:06.590Z,1.88
2024-04-30T00:31:33.700Z,2.50
2024-04-30T00:34:00.627Z,1.80
2024-04-30T00:36:27.496Z,1.52
2024-04-30T00:38:54.975Z,2.13
2024-04-30T00:41:21.980Z,2.20
2024-04-30T00:43:48.757Z,1.88
2024-04-30T00:46:15.778Z,2.17
2024-04-30T00:48:44.526Z,1.65
2024-04-30T00:51:13.603Z,2.33
2024-04-30T00:53:43.364Z,2.13
2024-04-30T00:56:10.337Z,2.00
2024-04-30T00:58:37.875Z,1.90
2024-04-30T01:01:05.069Z,1.70
2024-04-30T01:03:32.040Z,1.88
2024-04-30T01:05:59.090Z,1.50
2024-04-30T01:08:25.838Z,2.40
2024-04-30T01:10:52.613Z,1.90
2024-04-30T01:13:19.423Z,2.20
2024-04-30T01:15:48.209Z,2.15
2024-04-30T01:18:15.625Z,1.85
2024-04-30T01:20:42.466Z,2.10
2024-04-30T01:23:09.224Z,1.98
2024-04-30T01:25:36.162Z,2.00
2024-04-30T01:28:03.223Z,2.10
2024-04-30T01:30:30.163Z,2.33
2024-04-30T01:32:57.184Z,2.80
2024-04-30T01:35:23.992Z,2.40
2024-04-30T01:37:50.744Z,1.90
2024-04-30T01:40:18.422Z,2.25
2024-04-30T01:42:45.278Z,2.08
2024-04-30T01:45:12.080Z,1.80
2024-04-30T01:47:38.890Z,2.00
2024-04-30T01:50:07.226Z,2.47
2024-04-30T01:52:34.294Z,2.10
2024-04-30T01:55:01.340Z,2.40
2024-04-30T01:57:28.261Z,2.15
2024-04-30T01:59:55.016Z,2.13
2024-04-30T02:02:21.914Z,1.92
2024-04-30T02:04:53.191Z,2.58
2024-04-30T02:07:20.974Z,1.80
2024-04-30T02:09:47.883Z,2.05
2024-04-30T02:12:14.678Z,1.70
2024-04-30T02:14:42.050Z,2.50
2024-04-30T02:17:08.908Z,2.10
2024-04-30T02:19:35.729Z,2.00
2024-04-30T02:22:02.648Z,2.20
2024-04-30T02:24:29.519Z,2.10
2024-04-30T02:26:56.324Z,2.55
2024-04-30T02:29:23.142Z,2.47
2024-04-30T02:32:08.299Z,2.17
2024-04-30T02:34:35.214Z,2.15
2024-04-30T02:37:02.160Z,2.40
2024-04-30T02:39:29.016Z,2.38
2024-04-30T02:41:55.861Z,2.00
2024-04-30T02:44:22.647Z,2.25
2024-04-30T02:46:49.634Z,2.10
2024-04-30T02:49:16.453Z,2.50
2024-04-30T02:51:43.283Z,2.13
2024-04-30T02:54:10.059Z,2.35
2024-04-30T02:56:36.838Z,2.30
2024-04-30T02:59:04.586Z,2.28
2024-04-30T03:01:31.407Z,2.58
2024-04-30T03:03:58.313Z,2.45
2024-04-30T03:06:25.198Z,2.72
2024-04-30T03:08:51.966Z,2.40
2024-04-30T03:11:18.852Z,2.35
2024-04-30T03:13:46.111Z,2.42
2024-04-30T03:16:12.970Z,2.78
2024-04-30T03:18:41.734Z,2.55
2024-04-30T03:21:09.551Z,3.00
2024-04-30T03:23:36.495Z,2.67
2024-04-30T03:26:03.427Z,2.63
2024-04-30T03:28:30.347Z,3.00
2024-04-30T03:30:58.970Z,3.10
2024-04-30T03:33:26.120Z,2.88
2024-04-30T03:35:52.977Z,2.53
2024-04-30T03:38:19.725Z,3.10
2024-04-30T03:40:46.606Z,3.20
2024-04-30T03:43:13.391Z,2.80
2024-04-30T03:45:40.371Z,3.05
2024-04-30T03:48:07.514Z,3.20
2024-04-30T03:50:34.297Z,3.00
2024-04-30T03:53:01.523Z,3.17
2024-04-30T03:55:28.301Z,2.88
2024-04-30T03:57:55.052Z,2.80
2024-04-30T04:00:21.874Z,3.08
2024-04-30T04:02:48.714Z,3.33
2024-04-30T04:05:15.523Z,2.95
2024-04-30T04:07:42.355Z,3.47
2024-04-30T04:10:09.189Z,3.28
2024-04-30T04:12:54.658Z,3.20
2024-04-30T04:15:21.399Z,3.50
2024-04-30T04:17:48.674Z,3.63
2024-04-30T04:20:15.498Z,3.33
2024-04-30T04:22:42.374Z,2.92
2024-04-30T04:25:09.227Z,3.67
2024-04-30T04:27:36.071Z,3.70
2024-04-30T04:30:02.933Z,3.05
2024-04-30T04:32:29.780Z,3.53
2024-04-30T04:34:56.597Z,3.83
2024-04-30T04:37:26.671Z,3.63
2024-04-30T04:39:54.258Z,3.80
2024-04-30T04:42:21.077Z,3.38
2024-04-30T04:44:47.865Z,3.22
2024-04-30T04:47:14.646Z,3.70
2024-04-30T04:49:41.430Z,3.80
2024-04-30T04:52:08.349Z,4.00
2024-04-30T04:54:35.187Z,3.90
2024-04-30T04:57:01.981Z,3.72
2024-04-30T04:59:28.760Z,3.88
2024-04-30T05:01:55.687Z,4.35
2024-04-30T05:04:22.800Z,3.95
2024-04-30T05:06:51.499Z,4.13
2024-04-30T05:09:19.067Z,4.10
2024-04-30T05:11:47.044Z,4.18
2024-04-30T05:14:13.883Z,4.05
2024-04-30T05:16:41.038Z,4.38
2024-04-30T05:19:07.930Z,3.67
2024-04-30T05:21:34.690Z,4.38
2024-04-30T05:24:01.527Z,4.28
2024-04-30T05:26:28.297Z,3.95
2024-04-30T05:28:55.034Z,4.30
2024-04-30T05:31:21.849Z,4.85
2024-04-30T05:33:48.737Z,4.20
2024-04-30T05:36:15.547Z,4.45
2024-04-30T05:38:42.312Z,4.40
2024-04-30T05:41:09.112Z,4.40
2024-04-30T05:43:35.978Z,4.38
2024-04-30T05:46:02.952Z,4.50
2024-04-30T05:48:29.738Z,4.80
2024-04-30T05:50:56.549Z,4.50
2024-04-30T05:53:23.378Z,4.10
2024-04-30T05:55:50.263Z,5.25
2024-04-30T05:58:17.053Z,4.60
2024-04-30T06:00:43.893Z,4.53
2024-04-30T06:03:10.974Z,5.10
2024-04-30T06:05:37.955Z,4.25
2024-04-30T06:08:05.309Z,4.65
2024-04-30T06:10:32.147Z,5.07
2024-04-30T06:12:58.917Z,4.82
2024-04-30T06:15:25.704Z,4.68
2024-04-30T06:17:52.566Z,5.00
2024-04-30T06:20:19.505Z,4.70
2024-04-30T06:22:46.460Z,5.00
2024-04-30T06:25:13.334Z,4.55
2024-04-30T06:27:40.136Z,5.15
2024-04-30T06:30:07.694Z,4.57
2024-04-30T06:32:34.594Z,4.88
2024-04-30T06:35:01.586Z,4.80
2024-04-30T06:37:28.496Z,4.68
2024-04-30T06:39:55.334Z,4.65
2024-04-30T06:42:22.099Z,3.78
2024-04-30T06:44:48.959Z,4.40
2024-04-30T06:47:15.768Z,4.10
2024-04-30T06:49:42.595Z,4.65
2024-04-30T06:52:09.443Z,4.20
2024-04-30T06:54:36.603Z,4.07
2024-04-30T06:57:03.443Z,5.18
2024-04-30T06:59:30.263Z,4.53
2024-04-30T07:01:57.071Z,3.92
2024-04-30T07:04:23.923Z,4.35
2024-04-30T07:06:50.743Z,4.15
2024-04-30T07:09:17.520Z,4.85
2024-04-30T07:11:44.405Z,3.80
2024-04-30T07:14:11.335Z,4.15
2024-04-30T07:16:48.353Z,4.57
2024-04-30T07:19:19.692Z,3.93
2024-04-30T07:21:46.529Z,4.55
2024-04-30T07:24:13.362Z,4.65
2024-04-30T07:26:40.160Z,4.32
2024-04-30T07:29:06.954Z,4.40
2024-04-30T07:31:33.836Z,4.07
2024-04-30T07:34:03.452Z,3.63
2024-04-30T07:36:30.725Z,4.18
2024-04-30T07:38:57.536Z,3.90
2024-04-30T07:41:24.277Z,3.97
2024-04-30T07:43:51.050Z,4.78
2024-04-30T07:46:20.141Z,3.90
2024-04-30T07:48:47.201Z,4.03
2024-04-30T07:51:13.981Z,3.75
2024-04-30T07:53:40.803Z,3.58
2024-04-30T07:56:07.691Z,4.30
2024-04-30T07:58:34.551Z,4.03
2024-04-30T08:01:03.506Z,3.83
2024-04-30T08:03:30.483Z,4.25
2024-04-30T08:06:01.291Z,4.05
2024-04-30T08:08:33.935Z,3.40
2024-04-30T08:11:00.700Z,3.97
2024-04-30T08:13:27.584Z,3.70
2024-04-30T08:15:54.477Z,3.63
2024-04-30T08:18:21.368Z,4.25
2024-04-30T08:20:48.228Z,3.72
2024-04-30T08:23:14.989Z,3.35
2024-04-30T08:25:41.845Z,3.92
2024-04-30T08:28:10.028Z,4.28
2024-04-30T08:30:37.186Z,3.70
2024-04-30T08:33:04.848Z,3.35
2024-04-30T08:35:31.630Z,3.60
2024-04-30T08:38:01.248Z,3.47
2024-04-30T08:40:29.179Z,3.60
2024-04-30T08:42:59.027Z,3.53
2024-04-30T08:45:27.737Z,3.10
2024-04-30T08:47:56.753Z,3.75
2024-04-30T08:50:26.974Z,3.83
2024-04-30T08:52:55.867Z,3.83
2024-04-30T08:55:23.815Z,3.13
2024-04-30T08:57:50.896Z,3.53
2024-04-30T09:00:17.794Z,3.90
2024-04-30T09:02:53.401Z,3.42
2024-04-30T09:05:21.629Z,3.58
2024-04-30T09:07:48.584Z,3.60
2024-04-30T09:10:15.423Z,3.63
2024-04-30T09:12:42.206Z,3.70
2024-04-30T09:15:19.687Z,3.67
2024-04-30T09:17:46.762Z,3.60
2024-04-30T09:20:13.634Z,4.35
2024-04-30T09:22:54.456Z,3.50
2024-04-30T09:25:41.747Z,3.92
2024-04-30T09:28:17.874Z,3.72
2024-04-30T09:30:55.693Z,4.03
2024-04-30T09:33:23.604Z,3.78
2024-04-30T09:36:19.835Z,4.03
2024-04-30T09:38:47.899Z,4.13
2024-04-30T09:41:14.737Z,4.30
2024-04-30T09:43:42.305Z,3.58
2024-04-30T09:46:09.434Z,3.63
2024-04-30T09:48:36.505Z,3.70
2024-04-30T09:51:08.297Z,3.78
2024-04-30T09:53:37.495Z,3.53
2024-04-30T09:56:09.598Z,3.55
2024-04-30T09:58:38.077Z,3.33
2024-04-30T10:01:07.135Z,3.28
2024-04-30T10:03:38.857Z,3.33
2024-04-30T10:06:08.054Z,3.38
2024-04-30T10:08:36.498Z,3.15
2024-04-30T10:11:07.803Z,3.20
2024-04-30T10:16:12.361Z,3.25
2024-04-30T10:18:39.224Z,3.28
2024-04-30T10:21:12.971Z,3.25
2024-04-30T10:23:47.070Z,3.10
2024-04-30T10:26:15.656Z,3.20
2024-04-30T10:28:42.851Z,3.65
2024-04-30T10:31:11.816Z,3.10
2024-04-30T10:33:39.703Z,3.40
2024-04-30T10:36:09.557Z,3.35
2024-04-30T10:38:36.558Z,3.20
2024-04-30T10:41:04.843Z,3.20
2024-04-30T10:43:31.645Z,3.42
2024-04-30T10:46:18.815Z,2.72
2024-04-30T10:48:53.186Z,2.83
2024-04-30T10:51:21.514Z,2.67
2024-04-30T10:53:49.573Z,3.15
2024-04-30T10:56:17.024Z,2.60
2024-04-30T10:58:57.607Z,2.83
2024-04-30T11:01:26.248Z,2.70
2024-04-30T11:04:04.904Z,3.00
2024-04-30T11:06:43.047Z,3.08
2024-04-30T11:09:12.496Z,3.22
2024-04-30T11:11:48.898Z,3.22
2024-04-30T11:14:17.221Z,3.00
2024-04-30T11:16:45.389Z,3.00
2024-04-30T11:19:13.237Z,3.10
2024-04-30T11:21:40.368Z,2.65
2024-04-30T11:24:08.297Z,2.78
2024-04-30T11:26:35.148Z,2.78
2024-04-30T11:29:15.922Z,2.90
2024-04-30T11:31:48.994Z,2.67
2024-04-30T11:34:15.873Z,2.65
2024-04-30T11:36:42.924Z,2.40
2024-04-30T11:39:13.123Z,3.05
2024-04-30T11:41:43.564Z,2.53
2024-04-30T11:44:15.302Z,2.50
2024-04-30T11:46:42.242Z,2.67
2024-04-30T11:49:09.260Z,2.50
2024-04-30T11:51:36.153Z,3.03
2024-04-30T11:54:02.951Z,2.28
2024-04-30T11:56:31.955Z,2.63
2024-04-30T11:58:58.838Z,2.35
2024-04-30T12:01:25.820Z,2.10
2024-04-30T12:03:52.747Z,2.40
2024-04-30T12:06:19.843Z,2.90
2024-04-30T12:08:46.671Z,2.25
2024-04-30T12:11:13.787Z,1.92
2024-04-30T12:13:40.904Z,2.35
2024-04-30T12:16:08.201Z,1.90
2024-04-30T12:18:35.110Z,2.40
2024-04-30T12:21:02.019Z,2.10
2024-04-30T12:23:29.010Z,2.03
2024-04-30T12:25:55.935Z,2.17
2024-04-30T12:28:22.851Z,1.83
2024-04-30T12:30:49.634Z,1.98
2024-04-30T12:33:18.528Z,1.92
2024-04-30T12:35:46.703Z,2.00
2024-04-30T12:38:14.673Z,2.10
2024-04-30T12:40:42.499Z,2.20
2024-04-30T12:43:09.573Z,1.98
2024-04-30T12:45:36.406Z,2.00
2024-04-30T12:48:04.265Z,2.08
2024-04-30T12:50:31.264Z,1.70
2024-04-30T12:52:58.186Z,1.77
2024-04-30T12:55:25.211Z,1.83
2024-04-30T12:57:52.082Z,1.77
2024-04-30T13:00:19.067Z,2.17
2024-04-30T13:02:46.341Z,1.60
2024-04-30T13:05:13.409Z,1.88
2024-04-30T13:07:40.523Z,2.55
2024-04-30T13:10:07.678Z,1.98
2024-04-30T13:12:36.064Z,2.03
2024-04-30T13:15:03.473Z,2.00
2024-04-30T13:17:31.492Z,2.30
2024-04-30T13:19:58.364Z,1.83
2024-04-30T13:22:25.472Z,1.98
2024-04-30T13:24:52.297Z,1.92
2024-04-30T13:27:19.062Z,1.92
2024-04-30T13:29:45.844Z,1.77
2024-04-30T13:32:12.700Z,2.22
2024-04-30T13:34:39.610Z,2.08
2024-04-30T13:37:06.676Z,2.00
2024-04-30T13:39:33.860Z,1.92
2024-04-30T13:42:00.684Z,1.60
2024-04-30T13:44:27.544Z,1.70
2024-04-30T13:46:54.357Z,1.70
2024-04-30T13:49:21.339Z,1.55
2024-04-30T13:51:48.125Z,1.67
2024-04-30T13:54:15.008Z,1.90
2024-04-30T13:56:41.910Z,1.90
2024-04-30T13:59:16.754Z,1.80
2024-04-30T14:01:45.629Z,2.10
2024-04-30T14:04:12.597Z,1.92
2024-04-30T14:06:42.327Z,2.33
2024-04-30T14:09:10.590Z,2.22
2024-04-30T14:11:38.024Z,2.10
2024-04-30T14:14:06.572Z,2.00
2024-04-30T14:16:34.045Z,2.05
2024-04-30T14:19:01.059Z,2.30
2024-04-30T14:21:28.107Z,2.03
2024-04-30T14:23:56.545Z,2.00
2024-04-30T14:26:23.322Z,2.60
2024-04-30T14:28:50.145Z,2.00
2024-04-30T14:31:19.136Z,2.10
2024-04-30T14:33:47.753Z,1.98
2024-04-30T14:36:37.374Z,1.90
2024-04-30T14:39:07.354Z,1.65
2024-04-30T14:41:45.115Z,2.25
2024-04-30T14:44:12.647Z,2.00
2024-04-30T14:46:40.992Z,2.15
2024-04-30T14:49:07.971Z,2.08
2024-04-30T14:51:35.354Z,2.00
2024-04-30T14:54:02.757Z,1.70
2024-04-30T14:56:29.627Z,2.17
2024-04-30T14:58:56.464Z,2.28
2024-04-30T15:01:23.345Z,1.80
2024-04-30T15:03:50.269Z,1.95
2024-04-30T15:06:21.703Z,1.88
2024-04-30T15:08:49.555Z,2.03
2024-04-30T15:11:26.209Z,2.30
2024-04-30T15:13:53.893Z,2.30
2024-04-30T15:16:21.925Z,2.00
2024-04-30T15:18:49.036Z,1.83
2024-04-30T15:21:16.391Z,2.00
2024-04-30T15:23:44.853Z,2.03
2024-04-30T15:26:12.916Z,1.98
2024-04-30T15:28:39.955Z,1.90
2024-04-30T15:31:07.215Z,2.00
2024-04-30T15:33:36.695Z,1.85
2024-04-30T15:36:05.901Z,1.63
2024-04-30T15:38:32.844Z,2.22
2024-04-30T15:41:00.485Z,2.13
2024-04-30T15:43:29.985Z,2.22
2024-04-30T15:45:57.541Z,2.10
2024-04-30T15:48:24.712Z,1.88
2024-04-30T15:50:51.907Z,1.88
2024-04-30T15:53:22.367Z,2.13
2024-04-30T15:56:04.936Z,2.13
2024-04-30T15:58:36.628Z,2.50
2024-04-30T16:01:03.998Z,2.00
2024-04-30T16:03:30.999Z,1.90
2024-04-30T16:05:57.835Z,1.92
2024-04-30T16:08:24.653Z,2.13
2024-04-30T16:10:51.494Z,1.85
2024-04-30T16:13:21.571Z,2.22
2024-04-30T16:15:50.468Z,1.92
2024-04-30T16:18:19.732Z,2.33
2024-04-30T16:20:46.914Z,1.60
2024-04-30T16:23:13.675Z,1.90
2024-04-30T16:25:42.189Z,2.25
2024-04-30T16:28:10.897Z,2.07
2024-04-30T16:30:37.669Z,1.85
2024-04-30T16:33:04.783Z,1.88
2024-04-30T16:35:31.597Z,2.05
2024-04-30T16:37:58.422Z,2.05
2024-04-30T16:40:25.156Z,1.95
2024-04-30T16:42:51.954Z,2.25
2024-04-30T16:45:18.831Z,1.70
2024-04-30T16:47:45.916Z,2.20
2024-04-30T16:50:12.806Z,2.38
2024-04-30T16:52:39.570Z,2.00
2024-04-30T16:55:06.713Z,2.30
2024-04-30T16:57:34.535Z,2.35
2024-04-30T17:00:01.384Z,2.30
2024-04-30T17:02:28.188Z,2.40
2024-04-30T17:04:55.620Z,2.08
2024-04-30T17:07:22.419Z,2.20
2024-04-30T17:09:49.406Z,2.08
2024-04-30T17:12:16.199Z,2.40
2024-04-30T17:14:42.992Z,2.28
2024-04-30T17:17:10.525Z,2.50
2024-04-30T17:19:37.363Z,2.42
2024-04-30T17:22:04.395Z,2.10
2024-04-30T17:24:31.249Z,2.33
2024-04-30T17:26:58.915Z,2.45
2024-04-30T17:29:26.066Z,2.50
2024-04-30T17:31:53.052Z,2.55
2024-04-30T17:34:20.028Z,2.47
2024-04-30T17:36:50.024Z,2.70
2024-04-30T17:39:17.625Z,3.22
2024-04-30T17:41:45.659Z,2.28
2024-04-30T17:44:12.584Z,2.58
2024-04-30T17:46:43.550Z,2.42
2024-04-30T17:49:14.034Z,2.50
2024-04-30T17:51:42.114Z,2.47
2024-04-30T17:54:09.242Z,2.28
2024-04-30T17:56:39.748Z,2.38
2024-04-30T17:59:07.473Z,2.70
2024-04-30T18:01:34.393Z,2.63
2024-04-30T18:04:01.344Z,2.70
2024-04-30T18:06:28.640Z,2.38
2024-04-30T18:08:59.020Z,2.55
2024-04-30T18:11:29.153Z,2.20
2024-04-30T18:13:56.782Z,2.42
2024-04-30T18:16:23.796Z,2.58
2024-04-30T18:18:51.796Z,2.30
2024-04-30T18:21:20.236Z,3.00
2024-04-30T18:23:47.355Z,2.67
2024-04-30T18:26:14.543Z,2.58
2024-04-30T18:28:44.553Z,2.92
2024-04-30T18:31:11.320Z,2.42
2024-04-30T18:33:38.198Z,2.53
2024-04-30T18:36:05.259Z,2.40
2024-04-30T18:38:35.600Z,2.30
2024-04-30T18:41:13.399Z,2.80
2024-04-30T18:43:47.549Z,2.97
2024-04-30T18:46:15.486Z,2.90
2024-04-30T18:48:44.268Z,2.92
2024-04-30T18:51:12.093Z,3.35
2024-04-30T18:53:41.531Z,2.95
2024-04-30T18:56:09.659Z,3.17
2024-04-30T18:58:36.812Z,3.13
2024-04-30T19:01:03.908Z,2.55
2024-04-30T19:03:30.856Z,3.55
2024-04-30T19:05:57.613Z,3.20
2024-04-30T19:08:24.399Z,3.00
2024-04-30T19:10:51.275Z,3.20
2024-04-30T19:13:18.251Z,3.83
2024-04-30T19:15:46.505Z,3.58
2024-04-30T19:18:13.461Z,4.05
2024-04-30T19:20:40.366Z,3.60
2024-04-30T19:23:07.146Z,3.35
2024-04-30T19:25:33.955Z,3.10
2024-04-30T19:28:01.206Z,3.03
2024-04-30T19:30:28.052Z,4.00
2024-04-30T19:32:54.967Z,4.25
2024-04-30T19:35:21.832Z,5.22
2024-04-30T19:37:48.584Z,4.32
2024-04-30T19:40:15.424Z,4.43
2024-04-30T19:42:42.267Z,4.38
2024-04-30T19:45:09.236Z,8.00
2024-04-30T19:47:36.072Z,5.72
2024-04-30T19:50:02.953Z,5.55
2024-04-30T19:52:29.783Z,5.50
2024-04-30T19:54:56.669Z,5.80
2024-04-30T19:57:23.530Z,6.47
2024-04-30T19:59:50.353Z,13.00
2024-04-30T20:02:17.293Z,8.05
2024-04-30T20:04:45.182Z,5.10
2024-04-30T20:07:12.703Z,4.55
2024-04-30T20:09:39.585Z,9.05
2024-04-30T20:12:06.589Z,5.10
2024-04-30T20:14:33.331Z,10.52
2024-04-30T20:17:00.141Z,7.90
2024-04-30T20:19:26.950Z,5.32
2024-04-30T20:21:53.834Z,11.48
2024-04-30T20:24:23.063Z,9.30
2024-04-30T20:26:50.236Z,9.52
2024-04-30T20:29:17.218Z,7.25
2024-04-30T20:31:44.603Z,6.80
2024-04-30T20:34:11.483Z,11.55
2024-04-30T20:36:38.304Z,15.88
2024-04-30T20:39:06.068Z,9.13
2024-04-30T20:41:32.845Z,5.50
2024-04-30T20:43:59.676Z,4.80
2024-04-30T20:46:26.477Z,14.65
2024-04-30T20:48:53.374Z,8.00
2024-04-30T20:51:20.494Z,12.52
2024-04-30T20:53:47.429Z,11.25
2024-04-30T20:56:14.175Z,9.75
2024-04-30T20:58:41.008Z,14.65
2024-04-30T21:01:07.909Z,7.97
2024-04-30T21:03:34.791Z,9.45
2024-04-30T21:06:01.619Z,8.88
2024-04-30T21:08:28.368Z,4.80
2024-04-30T21:10:55.254Z,3.70
2024-04-30T21:13:22.067Z,3.95
2024-04-30T21:15:48.930Z,3.65
2024-04-30T21:18:15.960Z,3.17
2024-04-30T21:20:42.735Z,3.50
2024-04-30T21:23:09.795Z,3.05
2024-04-30T21:25:36.942Z,2.78
2024-04-30T21:28:03.901Z,3.00
2024-04-30T21:30:30.770Z,3.95
2024-04-30T21:32:57.615Z,21.77
2024-04-30T21:35:24.799Z,23.63
2024-04-30T21:37:51.550Z,19.25
2024-04-30T21:40:18.288Z,10.68
2024-04-30T21:42:45.144Z,9.10
2024-04-30T21:45:11.923Z,7.80
2024-04-30T21:47:38.858Z,6.70
2024-04-30T21:50:05.983Z,7.90
2024-04-30T21:52:32.763Z,9.05
2024-04-30T21:54:59.575Z,20.98
2024-04-30T21:57:26.398Z,30.27
2024-04-30T21:59:53.250Z,45.50
2024-04-30T22:02:20.865Z,31.20
2024-04-30T22:04:47.688Z,20.90
2024-04-30T22:07:16.874Z,16.15
2024-04-30T22:09:44.477Z,23.95
2024-04-30T22:12:11.348Z,32.40
2024-04-30T22:14:38.100Z,34.35
2024-04-30T22:17:05.123Z,44.13
2024-04-30T22:19:32.080Z,43.42
2024-04-30T22:21:58.864Z,36.97
2024-04-30T22:24:25.747Z,51.72
2024-04-30T22:26:52.491Z,47.92
2024-04-30T22:29:22.427Z,31.80
2024-04-30T22:31:49.801Z,22.58
2024-04-30T22:34:16.681Z,13.40
2024-04-30T22:36:43.620Z,9.20
2024-04-30T22:39:11.183Z,6.00
2024-04-30T22:41:37.985Z,4.88
2024-04-30T22:44:04.827Z,6.03
2024-04-30T22:46:31.625Z,5.97
2024-04-30T22:48:58.428Z,6.70
2024-04-30T22:51:31.092Z,7.68
2024-04-30T22:53:58.359Z,8.70
2024-04-30T22:56:25.220Z,11.30
2024-04-30T22:58:51.979Z,10.93
2024-04-30T23:01:18.940Z,18.83
2024-04-30T23:03:45.839Z,38.10
2024-04-30T23:06:12.601Z,29.20
2024-04-30T23:08:40.011Z,33.85
2024-04-30T23:11:06.843Z,31.10
2024-04-30T23:13:33.635Z,22.00
2024-04-30T23:16:02.064Z,16.02
2024-04-30T23:18:29.065Z,11.27
2024-04-30T23:20:56.150Z,8.00
2024-04-30T23:23:22.921Z,7.68
2024-04-30T23:25:49.678Z,5.38
2024-04-30T23:28:16.483Z,5.10
2024-04-30T23:30:43.262Z,5.05
2024-04-30T23:33:10.084Z,5.25
2024-04-30T23:35:36.826Z,4.50
2024-04-30T23:38:03.841Z,4.15
2024-04-30T23:40:30.602Z,4.65
2024-04-30T23:42:57.771Z,4.15
2024-04-30T23:45:24.614Z,4.22
2024-04-30T23:47:52.011Z,4.30
2024-04-30T23:50:18.811Z,4.05
2024-04-30T23:52:45.628Z,4.40
2024-04-30T23:55:12.386Z,4.07
2024-04-30T23:57:39.188Z,3.95
